createdAt,value
2022-11-20T00:01:29.262Z,1.60
2022-11-20T00:03:58.738Z,1.90
2022-11-20T00:06:26.691Z,2.10
2022-11-20T00:08:58.268Z,2.50
2022-11-20T00:11:26.500Z,1.77
2022-11-20T00:13:56.436Z,1.80
2022-11-20T00:16:27.202Z,1.88
2022-11-20T00:18:54.115Z,1.40
2022-11-20T00:21:23.498Z,1.65
2022-11-20T00:23:55.244Z,1.90
2022-11-20T00:26:23.247Z,2.10
2022-11-20T00:28:57.381Z,1.45
2022-11-20T00:31:24.403Z,1.40
2022-11-20T00:33:51.002Z,1.48
2022-11-20T00:36:19.970Z,2.00
2022-11-20T00:38:46.944Z,1.88
2022-11-20T00:41:16.188Z,1.90
2022-11-20T00:43:43.360Z,1.50
2022-11-20T00:46:21.094Z,1.58
2022-11-20T00:48:50.299Z,1.60
2022-11-20T00:51:20.274Z,1.50
2022-11-20T00:53:47.613Z,1.65
2022-11-20T00:56:16.908Z,1.40
2022-11-20T00:58:45.618Z,1.30
2022-11-20T01:01:15.168Z,1.15
2022-11-20T01:03:45.650Z,1.30
2022-11-20T01:06:17.501Z,1.40
2022-11-20T01:08:46.475Z,1.58
2022-11-20T01:11:29.040Z,1.23
2022-11-20T01:13:56.432Z,1.20
2022-11-20T01:16:24.849Z,1.00
2022-11-20T01:18:55.308Z,1.30
2022-11-20T01:21:25.127Z,1.20
2022-11-20T01:23:53.037Z,1.40
2022-11-20T01:26:32.855Z,1.23
2022-11-20T01:29:00.630Z,1.25
2022-11-20T01:31:30.446Z,1.35
2022-11-20T01:33:59.798Z,1.08
2022-11-20T01:36:29.121Z,1.17
2022-11-20T01:38:58.326Z,1.40
2022-11-20T01:41:51.440Z,1.27
2022-11-20T01:44:21.105Z,1.50
2022-11-20T01:47:09.466Z,1.40
2022-11-20T01:49:41.852Z,1.10
2022-11-20T01:52:20.681Z,1.35
2022-11-20T01:54:54.647Z,1.02
2022-11-20T01:57:28.736Z,1.10
2022-11-20T02:00:01.424Z,1.30
2022-11-20T02:02:36.556Z,1.13
2022-11-20T02:05:15.570Z,1.50
2022-11-20T02:07:47.343Z,1.10
2022-11-20T02:10:14.351Z,1.00
2022-11-20T02:12:59.221Z,1.10
2022-11-20T02:15:30.119Z,1.00
2022-11-20T02:17:57.114Z,1.17
2022-11-20T02:20:25.307Z,1.13
2022-11-20T02:23:04.895Z,1.02
2022-11-20T02:25:36.462Z,1.30
2022-11-20T02:28:03.329Z,1.20
2022-11-20T02:30:29.851Z,1.30
2022-11-20T02:32:58.073Z,1.23
2022-11-20T02:35:24.487Z,1.15
2022-11-20T02:37:55.721Z,1.35
2022-11-20T02:40:23.042Z,1.08
2022-11-20T02:42:53.477Z,1.30
2022-11-20T02:45:20.193Z,1.10
2022-11-20T02:47:48.534Z,1.38
2022-11-20T02:50:15.378Z,1.45
2022-11-20T02:52:42.785Z,1.30
2022-11-20T02:55:09.726Z,1.60
2022-11-20T02:57:36.222Z,1.38
2022-11-20T03:00:04.706Z,1.23
2022-11-20T03:02:31.961Z,1.67
2022-11-20T03:04:58.475Z,1.45
2022-11-20T03:07:27.035Z,1.15
2022-11-20T03:09:53.753Z,1.30
2022-11-20T03:12:20.252Z,1.20
2022-11-20T03:14:51.629Z,1.10
2022-11-20T03:17:26.076Z,1.15
2022-11-20T03:19:52.585Z,1.30
2022-11-20T03:22:19.080Z,1.20
2022-11-20T03:24:47.426Z,1.40
2022-11-20T03:27:13.981Z,1.38
2022-11-20T03:29:44.407Z,1.40
2022-11-20T03:32:12.693Z,1.08
2022-11-20T03:34:39.181Z,1.17
2022-11-20T03:37:05.689Z,1.30
2022-11-20T03:39:41.042Z,1.33
2022-11-20T03:42:31.880Z,1.23
2022-11-20T03:45:04.997Z,1.20
2022-11-20T03:47:31.489Z,1.10
2022-11-20T03:49:59.741Z,1.00
2022-11-20T03:52:28.430Z,1.35
2022-11-20T03:54:54.926Z,1.20
2022-11-20T03:57:21.440Z,1.40
2022-11-20T03:59:48.110Z,1.10
2022-11-20T04:02:14.963Z,1.30
2022-11-20T04:04:41.536Z,1.05
2022-11-20T04:07:09.828Z,1.42
2022-11-20T04:09:36.407Z,1.23
2022-11-20T04:12:02.933Z,1.10
2022-11-20T04:14:29.604Z,1.38
2022-11-20T04:16:56.361Z,1.50
2022-11-20T04:19:23.248Z,1.60
2022-11-20T04:21:56.620Z,1.23
2022-11-20T04:24:23.082Z,1.42
2022-11-20T04:26:49.561Z,1.40
2022-11-20T04:29:17.920Z,1.60
2022-11-20T04:31:44.514Z,1.15
2022-11-20T04:34:13.951Z,1.30
2022-11-20T04:36:40.586Z,1.52
2022-11-20T04:39:07.594Z,1.48
2022-11-20T04:41:36.806Z,1.65
2022-11-20T04:44:09.379Z,1.15
2022-11-20T04:46:43.570Z,1.38
2022-11-20T04:49:19.492Z,1.27
2022-11-20T04:51:48.015Z,1.10
2022-11-20T04:54:17.294Z,1.10
2022-11-20T04:56:45.983Z,1.20
2022-11-20T04:59:12.494Z,1.25
2022-11-20T05:01:39.028Z,1.13
2022-11-20T05:04:11.069Z,1.17
2022-11-20T05:06:37.850Z,1.20
2022-11-20T05:09:04.386Z,0.90
2022-11-20T05:11:34.692Z,1.00
2022-11-20T05:14:01.418Z,1.20
2022-11-20T05:16:28.198Z,1.08
2022-11-20T05:18:57.848Z,1.60
2022-11-20T05:21:24.332Z,0.90
2022-11-20T05:23:50.787Z,1.08
2022-11-20T05:26:22.691Z,1.20
2022-11-20T05:28:49.944Z,1.00
2022-11-20T05:31:27.239Z,0.90
2022-11-20T05:33:55.168Z,1.00
2022-11-20T05:36:21.695Z,0.80
2022-11-20T05:38:51.096Z,1.20
2022-11-20T05:41:20.926Z,0.93
2022-11-20T05:43:49.142Z,0.70
2022-11-20T05:46:17.929Z,0.90
2022-11-20T05:48:45.945Z,1.10
2022-11-20T05:51:20.377Z,0.85
2022-11-20T05:53:49.138Z,0.80
2022-11-20T05:56:18.633Z,1.10
2022-11-20T05:58:47.359Z,0.93
2022-11-20T06:01:25.626Z,0.95
2022-11-20T06:03:54.189Z,0.90
2022-11-20T06:06:23.167Z,0.70
2022-11-20T06:08:50.248Z,0.80
2022-11-20T06:11:18.032Z,0.75
2022-11-20T06:13:45.062Z,1.05
2022-11-20T06:16:12.892Z,0.73
2022-11-20T06:18:43.281Z,0.88
2022-11-20T06:21:21.196Z,0.80
2022-11-20T06:23:54.840Z,1.10
2022-11-20T06:26:23.966Z,1.02
2022-11-20T06:28:53.313Z,1.35
2022-11-20T06:31:22.785Z,1.10
2022-11-20T06:33:50.099Z,1.10
2022-11-20T06:36:19.521Z,1.42
2022-11-20T06:38:46.663Z,1.23
2022-11-20T06:41:20.033Z,1.33
2022-11-20T06:43:49.168Z,1.52
2022-11-20T06:46:20.764Z,1.48
2022-11-20T06:48:48.905Z,1.27
2022-11-20T06:51:20.388Z,1.10
2022-11-20T06:53:46.978Z,1.20
2022-11-20T06:56:13.770Z,1.20
2022-11-20T06:58:42.570Z,1.00
2022-11-20T07:01:12.720Z,1.30
2022-11-20T07:03:39.535Z,1.00
2022-11-20T07:06:07.092Z,1.00
2022-11-20T07:08:34.836Z,1.00
2022-11-20T07:11:03.224Z,0.88
2022-11-20T07:13:30.223Z,0.93
2022-11-20T07:16:01.011Z,1.00
2022-11-20T07:18:27.899Z,0.90
2022-11-20T07:20:54.381Z,1.00
2022-11-20T07:23:20.924Z,0.90
2022-11-20T07:25:51.281Z,0.90
2022-11-20T07:28:24.105Z,0.80
2022-11-20T07:30:52.485Z,0.70
2022-11-20T07:33:19.183Z,0.75
2022-11-20T07:35:46.920Z,0.60
2022-11-20T07:38:13.655Z,0.60
2022-11-20T07:40:40.202Z,0.60
2022-11-20T07:43:08.480Z,0.70
2022-11-20T07:45:35.039Z,0.77
2022-11-20T07:48:01.770Z,0.70
2022-11-20T07:50:33.465Z,0.85
2022-11-20T07:53:04.713Z,0.82
2022-11-20T07:55:31.517Z,0.80
2022-11-20T07:57:58.512Z,0.82
2022-11-20T08:00:26.138Z,0.70
2022-11-20T08:02:53.249Z,0.55
2022-11-20T08:05:21.526Z,0.80
2022-11-20T08:07:48.108Z,0.70
2022-11-20T08:10:17.067Z,0.90
2022-11-20T08:13:11.778Z,0.63
2022-11-20T08:15:40.129Z,0.70
2022-11-20T08:20:56.309Z,0.90
2022-11-20T08:23:23.787Z,0.80
2022-11-20T08:25:52.070Z,0.70
2022-11-20T08:28:22.140Z,0.60
2022-11-20T08:30:49.524Z,0.90
2022-11-20T08:33:16.138Z,0.70
2022-11-20T08:35:43.969Z,0.60
2022-11-20T08:38:10.700Z,0.77
2022-11-20T08:40:37.246Z,0.88
2022-11-20T08:43:03.728Z,0.70
2022-11-20T08:45:34.001Z,0.90
2022-11-20T08:48:02.607Z,0.70
2022-11-20T08:50:29.512Z,0.90
2022-11-20T08:52:56.300Z,1.60
2022-11-20T08:55:22.803Z,1.15
2022-11-20T08:57:51.016Z,1.20
2022-11-20T09:00:17.968Z,1.27
2022-11-20T09:02:46.848Z,1.20
2022-11-20T09:05:13.637Z,0.90
2022-11-20T09:07:41.313Z,1.50
2022-11-20T09:10:27.856Z,1.20
2022-11-20T09:12:57.819Z,0.90
2022-11-20T09:15:28.687Z,1.10
2022-11-20T09:17:57.035Z,1.00
2022-11-20T09:20:25.586Z,1.00
2022-11-20T09:22:52.429Z,1.13
2022-11-20T09:25:19.435Z,1.23
2022-11-20T09:27:48.635Z,1.02
2022-11-20T09:30:17.466Z,0.90
2022-11-20T09:32:44.079Z,0.82
2022-11-20T09:35:13.187Z,0.98
2022-11-20T09:37:39.701Z,1.00
2022-11-20T09:40:07.059Z,0.95
2022-11-20T09:42:42.369Z,0.98
2022-11-20T09:45:17.610Z,1.40
2022-11-20T09:48:13.086Z,1.33
2022-11-20T09:50:56.893Z,1.60
2022-11-20T09:53:54.817Z,1.92
2022-11-20T09:56:22.827Z,1.35
2022-11-20T09:58:52.506Z,1.13
2022-11-20T10:01:22.177Z,1.27
2022-11-20T10:04:27.098Z,1.13
2022-11-20T10:07:34.856Z,1.25
2022-11-20T10:10:01.853Z,1.10
2022-11-20T10:13:03.542Z,1.10
2022-11-20T10:15:42.548Z,1.17
2022-11-20T10:18:33.394Z,1.08
2022-11-20T10:21:26.373Z,1.20
2022-11-20T10:24:17.473Z,1.00
2022-11-20T10:26:46.685Z,0.93
2022-11-20T10:29:24.216Z,1.20
2022-11-20T10:31:57.536Z,1.17
2022-11-20T10:34:38.272Z,1.20
2022-11-20T10:37:19.544Z,1.10
2022-11-20T10:40:01.354Z,0.98
2022-11-20T10:42:35.235Z,1.00
2022-11-20T10:45:25.279Z,0.95
2022-11-20T10:48:13.580Z,1.00
2022-11-20T10:50:50.857Z,1.10
2022-11-20T10:53:44.887Z,1.17
2022-11-20T10:56:31.758Z,1.48
2022-11-20T10:59:53.089Z,1.38
2022-11-20T11:02:35.212Z,1.00
2022-11-20T11:05:14.677Z,1.40
2022-11-20T11:07:45.334Z,1.00
2022-11-20T11:10:20.385Z,1.20
2022-11-20T11:12:52.730Z,1.45
2022-11-20T11:15:39.627Z,1.45
2022-11-20T11:18:11.519Z,1.50
2022-11-20T11:20:38.904Z,1.30
2022-11-20T11:23:08.244Z,1.23
2022-11-20T11:25:39.523Z,0.98
2022-11-20T11:28:22.670Z,0.90
2022-11-20T11:30:53.837Z,1.30
2022-11-20T11:33:22.001Z,1.13
2022-11-20T11:35:51.846Z,1.05
2022-11-20T11:38:25.836Z,1.13
2022-11-20T11:40:55.159Z,1.33
2022-11-20T11:43:45.822Z,1.23
2022-11-20T11:46:36.296Z,1.08
2022-11-20T11:49:05.923Z,1.30
2022-11-20T11:52:02.377Z,0.95
2022-11-20T11:54:52.322Z,1.17
2022-11-20T11:57:35.472Z,1.00
2022-11-20T12:00:07.784Z,1.17
2022-11-20T12:02:40.482Z,1.10
2022-11-20T12:05:19.695Z,0.95
2022-11-20T12:07:53.452Z,1.10
2022-11-20T12:10:43.093Z,1.13
2022-11-20T12:13:47.334Z,1.27
2022-11-20T12:16:18.945Z,1.70
2022-11-20T12:18:49.614Z,1.40
2022-11-20T12:21:25.207Z,1.27
2022-11-20T12:24:11.277Z,1.52
2022-11-20T12:26:49.790Z,2.03
2022-11-20T12:29:37.287Z,1.50
2022-11-20T12:32:17.738Z,1.50
2022-11-20T12:35:29.340Z,1.48
2022-11-20T12:38:18.597Z,1.10
2022-11-20T12:40:53.682Z,1.10
2022-11-20T12:43:46.531Z,1.10
2022-11-20T12:46:30.833Z,1.15
2022-11-20T12:49:25.624Z,1.08
2022-11-20T12:52:18.995Z,1.10
2022-11-20T12:55:11.263Z,1.13
2022-11-20T12:57:37.684Z,1.27
2022-11-20T13:00:08.881Z,1.20
2022-11-20T13:02:57.012Z,1.20
2022-11-20T13:05:46.447Z,1.20
2022-11-20T13:08:23.557Z,1.20
2022-11-20T13:11:00.647Z,1.10
2022-11-20T13:13:38.533Z,1.00
2022-11-20T13:16:16.946Z,0.93
2022-11-20T13:18:48.397Z,1.10
2022-11-20T13:21:19.570Z,0.60
2022-11-20T13:23:46.457Z,0.80
2022-11-20T13:26:23.376Z,0.73
2022-11-20T13:29:04.535Z,0.68
2022-11-20T13:31:39.928Z,1.20
2022-11-20T13:34:08.183Z,1.00
2022-11-20T13:36:36.048Z,0.90
2022-11-20T13:39:03.278Z,1.00
2022-11-20T13:41:34.286Z,1.15
2022-11-20T13:44:42.350Z,1.00
2022-11-20T13:47:26.965Z,0.85
2022-11-20T13:49:59.949Z,1.00
2022-11-20T13:52:58.479Z,1.75
2022-11-20T13:55:38.019Z,1.58
2022-11-20T13:58:19.736Z,1.33
2022-11-20T14:00:59.756Z,1.35
2022-11-20T14:03:58.968Z,1.20
2022-11-20T14:06:34.151Z,0.80
2022-11-20T14:09:01.181Z,0.90
2022-11-20T14:11:30.357Z,0.93
2022-11-20T14:14:03.251Z,1.10
2022-11-20T14:16:33.798Z,1.10
2022-11-20T14:19:20.444Z,0.98
2022-11-20T14:21:48.592Z,0.95
2022-11-20T14:24:20.294Z,0.90
2022-11-20T14:26:49.814Z,1.10
2022-11-20T14:29:24.616Z,1.00
2022-11-20T14:31:55.858Z,0.90
2022-11-20T14:34:29.150Z,0.70
2022-11-20T14:37:03.579Z,0.80
2022-11-20T14:39:39.021Z,1.17
2022-11-20T14:42:19.519Z,1.02
2022-11-20T14:44:46.845Z,1.00
2022-11-20T14:47:16.477Z,0.95
2022-11-20T14:49:45.793Z,1.10
2022-11-20T14:52:18.681Z,0.90
2022-11-20T14:54:47.346Z,1.02
2022-11-20T14:57:29.665Z,1.23
2022-11-20T15:00:27.685Z,1.00
2022-11-20T15:02:54.606Z,0.85
2022-11-20T15:06:04.575Z,0.90
2022-11-20T15:08:31.433Z,0.73
2022-11-20T15:10:58.818Z,0.73
2022-11-20T15:13:35.448Z,0.70
2022-11-20T15:16:03.737Z,0.70
2022-11-20T15:18:40.605Z,0.85
2022-11-20T15:21:19.566Z,0.60
2022-11-20T15:23:46.517Z,0.70
2022-11-20T15:26:19.443Z,0.60
2022-11-20T15:28:54.358Z,0.90
2022-11-20T15:31:23.167Z,1.13
2022-11-20T15:33:50.466Z,1.13
2022-11-20T15:36:19.393Z,1.30
2022-11-20T15:38:46.320Z,2.05
2022-11-20T15:41:12.845Z,1.15
2022-11-20T15:43:39.819Z,1.50
2022-11-20T15:46:12.014Z,1.38
2022-11-20T15:48:48.155Z,1.50
2022-11-20T15:51:25.787Z,2.03
2022-11-20T15:53:57.453Z,2.00
2022-11-20T15:56:24.791Z,1.70
2022-11-20T15:58:51.269Z,2.22
2022-11-20T16:01:25.373Z,1.60
2022-11-20T16:03:55.568Z,1.30
2022-11-20T16:06:23.926Z,1.50
2022-11-20T16:08:54.858Z,1.20
2022-11-20T16:11:21.345Z,1.00
2022-11-20T16:14:08.403Z,1.08
2022-11-20T16:16:38.599Z,1.13
2022-11-20T16:19:05.201Z,1.02
2022-11-20T16:21:34.407Z,0.88
2022-11-20T16:24:05.907Z,1.15
2022-11-20T16:26:33.606Z,1.45
2022-11-20T16:29:10.119Z,1.13
2022-11-20T16:31:36.770Z,2.00
2022-11-20T16:34:11.184Z,1.80
2022-11-20T16:36:41.442Z,1.70
2022-11-20T16:39:07.912Z,1.95
2022-11-20T16:41:35.489Z,1.65
2022-11-20T16:44:08.637Z,1.77
2022-11-20T16:46:35.803Z,1.60
2022-11-20T16:49:05.465Z,1.60
2022-11-20T16:51:37.778Z,1.65
2022-11-20T16:54:08.773Z,1.88
2022-11-20T16:56:37.339Z,2.10
2022-11-20T16:59:09.392Z,2.25
2022-11-20T17:01:38.775Z,2.75
2022-11-20T17:04:07.027Z,1.90
2022-11-20T17:06:39.748Z,2.60
2022-11-20T17:09:09.488Z,2.28
2022-11-20T17:11:36.734Z,2.83
2022-11-20T17:14:04.021Z,2.40
2022-11-20T17:16:31.113Z,2.45
2022-11-20T17:19:02.995Z,2.10
2022-11-20T17:21:32.575Z,2.15
2022-11-20T17:24:03.368Z,1.75
2022-11-20T17:26:30.472Z,1.92
2022-11-20T17:29:04.354Z,2.20
2022-11-20T17:31:32.529Z,1.73
2022-11-20T17:34:02.184Z,1.67
2022-11-20T17:36:29.688Z,1.60
2022-11-20T17:38:56.153Z,1.55
2022-11-20T17:41:27.748Z,1.73
2022-11-20T17:43:56.204Z,1.60
2022-11-20T17:46:26.095Z,1.40
2022-11-20T17:48:52.915Z,1.40
2022-11-20T17:51:23.105Z,0.93
2022-11-20T17:53:59.204Z,1.27
2022-11-20T17:56:44.572Z,1.05
2022-11-20T17:59:13.157Z,1.30
2022-11-20T18:01:42.965Z,1.10
2022-11-20T18:04:18.263Z,0.93
2022-11-20T18:06:44.763Z,3.88
2022-11-20T18:09:12.172Z,2.20
2022-11-20T18:11:42.430Z,2.35
2022-11-20T18:14:31.646Z,2.30
2022-11-20T18:17:02.147Z,2.10
2022-11-20T18:19:33.005Z,1.42
2022-11-20T18:22:06.434Z,1.10
2022-11-20T18:24:33.645Z,1.02
2022-11-20T18:27:00.126Z,1.38
2022-11-20T18:29:30.141Z,0.80
2022-11-20T18:31:57.338Z,0.98
2022-11-20T18:34:24.510Z,1.00
2022-11-20T18:36:51.374Z,0.95
2022-11-20T18:39:18.084Z,1.00
2022-11-20T18:42:03.086Z,0.98
2022-11-20T18:44:49.883Z,1.67
2022-11-20T18:47:21.260Z,1.00
2022-11-20T18:49:51.283Z,1.10
2022-11-20T18:52:27.057Z,1.15
2022-11-20T18:54:54.091Z,1.80
2022-11-20T18:57:23.719Z,1.30
2022-11-20T18:59:50.548Z,0.90
2022-11-20T19:02:20.052Z,2.83
2022-11-20T19:04:47.149Z,3.05
2022-11-20T19:07:18.476Z,1.90
2022-11-20T19:09:48.679Z,1.25
2022-11-20T19:12:15.773Z,2.10
2022-11-20T19:14:42.516Z,1.70
2022-11-20T19:20:01.864Z,1.30
2022-11-20T19:22:28.376Z,1.30
2022-11-20T19:24:55.026Z,1.08
2022-11-20T19:27:21.650Z,1.20
2022-11-20T19:29:49.904Z,1.10
2022-11-20T19:32:16.571Z,0.95
2022-11-20T19:34:45.437Z,1.23
2022-11-20T19:37:11.945Z,1.20
2022-11-20T19:39:38.494Z,1.10
2022-11-20T19:42:09.639Z,1.15
2022-11-20T19:44:36.286Z,0.95
2022-11-20T19:47:08.922Z,1.10
2022-11-20T19:49:36.986Z,0.90
2022-11-20T19:52:03.517Z,0.77
2022-11-20T19:54:33.473Z,0.80
2022-11-20T19:57:00.098Z,0.90
2022-11-20T19:59:26.992Z,0.98
2022-11-20T20:01:53.589Z,1.40
2022-11-20T20:04:20.156Z,3.38
2022-11-20T20:06:46.789Z,2.65
2022-11-20T20:09:13.825Z,2.08
2022-11-20T20:11:40.756Z,1.60
2022-11-20T20:14:18.631Z,1.60
2022-11-20T20:16:45.835Z,1.20
2022-11-20T20:19:14.188Z,1.30
2022-11-20T20:21:47.734Z,1.10
2022-11-20T20:24:17.848Z,0.90
2022-11-20T20:26:44.337Z,1.30
2022-11-20T20:29:12.691Z,0.90
2022-11-20T20:31:39.923Z,0.80
2022-11-20T20:34:06.723Z,0.95
2022-11-20T20:36:33.459Z,1.00
2022-11-20T20:38:59.921Z,0.80
2022-11-20T20:41:26.514Z,1.10
2022-11-20T20:44:13.678Z,1.45
2022-11-20T20:46:42.238Z,1.25
2022-11-20T20:49:08.761Z,1.10
2022-11-20T20:51:37.925Z,1.48
2022-11-20T20:54:05.276Z,1.30
2022-11-20T20:56:32.387Z,1.40
2022-11-20T20:59:00.914Z,1.30
2022-11-20T21:01:30.658Z,1.30
2022-11-20T21:03:57.586Z,1.20
2022-11-20T21:06:24.695Z,1.00
2022-11-20T21:08:51.252Z,0.85
2022-11-20T21:11:20.436Z,1.20
2022-11-20T21:13:49.750Z,1.20
2022-11-20T21:16:18.673Z,1.27
2022-11-20T21:18:45.373Z,1.05
2022-11-20T21:21:34.314Z,1.30
2022-11-20T21:24:01.169Z,1.40
2022-11-20T21:26:27.708Z,1.15
2022-11-20T21:28:54.369Z,1.10
2022-11-20T21:31:23.526Z,0.93
2022-11-20T21:33:52.381Z,0.95
2022-11-20T21:36:24.336Z,1.08
2022-11-20T21:38:56.987Z,1.00
2022-11-20T21:41:24.947Z,1.02
2022-11-20T21:44:29.212Z,1.10
2022-11-20T21:46:43.631Z,1.02
2022-11-20T21:49:12.196Z,0.70
2022-11-20T21:51:38.876Z,0.93
2022-11-20T21:54:07.678Z,0.75
2022-11-20T21:56:34.263Z,1.10
2022-11-20T21:59:00.750Z,0.98
2022-11-20T22:01:29.516Z,1.10
2022-11-20T22:04:03.304Z,1.15
2022-11-20T22:06:35.354Z,1.00
2022-11-20T22:09:03.126Z,1.10
2022-11-20T22:11:32.153Z,1.10
2022-11-20T22:14:17.808Z,0.90
2022-11-20T22:16:46.082Z,0.90
2022-11-20T22:19:16.241Z,1.05
2022-11-20T22:21:42.902Z,0.70
2022-11-20T22:24:13.738Z,0.90
2022-11-20T22:26:40.876Z,0.88
2022-11-20T22:29:08.560Z,1.05
2022-11-20T22:31:41.415Z,0.82
2022-11-20T22:34:11.214Z,1.30
2022-11-20T22:36:38.859Z,1.50
2022-11-20T22:39:06.192Z,1.20
2022-11-20T22:41:32.889Z,1.10
2022-11-20T22:44:03.778Z,0.90
2022-11-20T22:46:35.342Z,0.90
2022-11-20T22:49:04.722Z,1.15
2022-11-20T22:51:33.416Z,1.20
2022-11-20T22:54:01.266Z,1.05
2022-11-20T22:56:28.013Z,0.73
2022-11-20T22:58:54.805Z,0.80
2022-11-20T23:01:27.075Z,0.95
2022-11-20T23:03:59.693Z,0.82
2022-11-20T23:06:26.630Z,1.00
2022-11-20T23:08:57.692Z,0.80
2022-11-20T23:11:27.574Z,0.80
2022-11-20T23:13:57.938Z,1.13
2022-11-20T23:16:26.130Z,1.10
2022-11-20T23:19:01.014Z,0.73
2022-11-20T23:21:29.740Z,0.73
2022-11-20T23:23:58.166Z,1.05
2022-11-20T23:26:28.792Z,0.82
2022-11-20T23:28:57.921Z,0.88
2022-11-20T23:31:25.524Z,0.77
2022-11-20T23:33:52.601Z,1.00
2022-11-20T23:36:19.540Z,0.98
2022-11-20T23:38:46.501Z,0.80
2022-11-20T23:41:13.854Z,0.77
2022-11-20T23:43:42.236Z,0.90
2022-11-20T23:46:13.753Z,0.68
2022-11-20T23:48:42.993Z,0.90
2022-11-20T23:51:16.137Z,0.52
2022-11-20T23:53:42.970Z,0.80
2022-11-20T23:56:11.429Z,1.00
2022-11-20T23:58:40.676Z,0.80
